createdAt,value
2023-03-26T00:02:13.732Z,99768.56
2023-03-26T00:04:43.855Z,99769.28
2023-03-26T00:07:14.833Z,99775.28
2023-03-26T00:09:42.813Z,99769.34
2023-03-26T00:12:13.855Z,99771.81
2023-03-26T00:14:43.778Z,99762.50
2023-03-26T00:17:11.643Z,99757.34
2023-03-26T00:19:43.122Z,99764.22
2023-03-26T00:22:16.154Z,99769.34
2023-03-26T00:24:45.983Z,99760.13
2023-03-26T00:27:19.366Z,99775.31
2023-03-26T00:29:48.228Z,99779.47
2023-03-26T00:32:16.836Z,99757.75
2023-03-26T00:34:48.084Z,99774.41
2023-03-26T00:37:18.565Z,99747.63
2023-03-26T00:39:51.033Z,99777.75
2023-03-26T00:42:22.018Z,99779.50
2023-03-26T00:44:56.863Z,99777.78
2023-03-26T00:47:24.825Z,99773.47
2023-03-26T00:49:55.098Z,99775.22
2023-03-26T00:52:25.395Z,99774.34
2023-03-26T00:54:53.273Z,99767.59
2023-03-26T00:57:35.881Z,99766.78
2023-03-26T01:00:16.113Z,99723.91
2023-03-26T01:02:48.116Z,99766.03
2023-03-26T01:05:48.827Z,99764.19
2023-03-26T01:08:36.746Z,99767.59
2023-03-26T01:11:13.965Z,99769.22
2023-03-26T01:13:50.666Z,99777.78
2023-03-26T01:16:27.838Z,99776.94
2023-03-26T01:18:58.833Z,99769.28
2023-03-26T01:21:31.760Z,99779.53
2023-03-26T01:24:04.443Z,99782.91
2023-03-26T01:26:44.593Z,99779.41
2023-03-26T01:29:20.817Z,99776.03
2023-03-26T01:31:57.982Z,99780.28
2023-03-26T01:34:35.759Z,99780.31
2023-03-26T01:37:16.467Z,99780.31
2023-03-26T01:39:58.970Z,99777.81
2023-03-26T01:42:37.120Z,99777.75
2023-03-26T01:45:12.938Z,99779.53
2023-03-26T01:47:44.088Z,99779.53
2023-03-26T01:50:12.321Z,99781.22
2023-03-26T01:52:42.306Z,99776.97
2023-03-26T01:55:15.399Z,99786.22
2023-03-26T01:57:53.395Z,99789.59
2023-03-26T02:00:29.513Z,99789.56
2023-03-26T02:03:20.613Z,99782.03
2023-03-26T02:05:54.344Z,99783.69
2023-03-26T02:08:37.100Z,99783.56
2023-03-26T02:11:11.885Z,99785.34
2023-03-26T02:13:44.483Z,99783.69
2023-03-26T02:16:16.509Z,99786.19
2023-03-26T02:18:53.111Z,99784.44
2023-03-26T02:21:23.307Z,99785.38
2023-03-26T02:23:59.587Z,99733.22
2023-03-26T02:26:28.714Z,99776.03
2023-03-26T02:28:59.849Z,99772.72
2023-03-26T02:31:29.438Z,99773.56
2023-03-26T02:33:59.546Z,99778.56
2023-03-26T02:36:28.423Z,99780.28
2023-03-26T02:38:59.641Z,99788.69
2023-03-26T02:41:30.518Z,99783.59
2023-03-26T02:43:58.217Z,99783.66
2023-03-26T02:46:28.022Z,99778.53
2023-03-26T02:49:00.169Z,99778.50
2023-03-26T02:51:28.850Z,99787.00
2023-03-26T02:53:58.509Z,99792.06
2023-03-26T02:56:29.848Z,99784.59
2023-03-26T02:58:57.650Z,99789.50
2023-03-26T03:01:27.895Z,99792.78
2023-03-26T03:04:03.426Z,99797.03
2023-03-26T03:06:32.620Z,99792.91
2023-03-26T03:09:06.825Z,99794.50
2023-03-26T03:11:36.479Z,99797.75
2023-03-26T03:14:07.076Z,99801.31
2023-03-26T03:16:36.889Z,99801.22
2023-03-26T03:19:06.779Z,99801.13
2023-03-26T03:21:34.644Z,99799.50
2023-03-26T03:24:04.332Z,99803.03
2023-03-26T03:26:36.575Z,99799.56
2023-03-26T03:29:04.723Z,99797.75
2023-03-26T03:31:34.428Z,99807.13
2023-03-26T03:34:06.299Z,99804.56
2023-03-26T03:36:38.336Z,99807.13
2023-03-26T03:39:10.276Z,99804.56
2023-03-26T03:41:39.363Z,99808.84
2023-03-26T03:44:07.915Z,99808.84
2023-03-26T03:46:40.009Z,99797.81
2023-03-26T03:49:10.014Z,99806.22
2023-03-26T03:51:37.770Z,99799.47
2023-03-26T03:54:07.228Z,99802.88
2023-03-26T03:56:38.056Z,99799.50
2023-03-26T03:59:08.865Z,99792.69
2023-03-26T04:01:38.746Z,99800.38
2023-03-26T04:04:10.853Z,99798.66
2023-03-26T04:06:38.774Z,99791.88
2023-03-26T04:09:08.934Z,99788.53
2023-03-26T04:11:38.819Z,99791.03
2023-03-26T04:14:07.900Z,99807.97
2023-03-26T04:16:37.814Z,99810.47
2023-03-26T04:19:10.507Z,99801.09
2023-03-26T04:21:38.375Z,99803.53
2023-03-26T04:24:07.174Z,99809.50
2023-03-26T04:26:39.076Z,99803.53
2023-03-26T04:29:11.955Z,99805.25
2023-03-26T04:31:45.047Z,99804.44
2023-03-26T04:34:24.315Z,99803.56
2023-03-26T04:36:54.876Z,99817.88
2023-03-26T04:39:29.380Z,99815.31
2023-03-26T04:41:59.798Z,99814.56
2023-03-26T04:44:31.855Z,99816.19
2023-03-26T04:46:59.650Z,99820.47
2023-03-26T04:49:31.443Z,99820.47
2023-03-26T04:51:59.406Z,99807.75
2023-03-26T04:54:27.192Z,99820.22
2023-03-26T04:57:02.445Z,99811.94
2023-03-26T04:59:35.381Z,99816.97
2023-03-26T05:02:10.090Z,99808.53
2023-03-26T05:04:40.591Z,99810.06
2023-03-26T05:07:14.450Z,99815.25
2023-03-26T05:09:45.042Z,99817.50
2023-03-26T05:12:14.916Z,99816.03
2023-03-26T05:14:44.181Z,99817.69
2023-03-26T05:17:18.827Z,99814.34
2023-03-26T05:19:50.561Z,99817.69
2023-03-26T05:22:18.369Z,99810.00
2023-03-26T05:24:46.116Z,99815.09
2023-03-26T05:27:18.874Z,99771.41
2023-03-26T05:29:47.947Z,99820.84
2023-03-26T05:32:15.638Z,99820.03
2023-03-26T05:34:47.299Z,99813.25
2023-03-26T05:37:15.018Z,99824.19
2023-03-26T05:39:43.824Z,99829.16
2023-03-26T05:42:15.563Z,99822.59
2023-03-26T05:44:43.302Z,99832.66
2023-03-26T05:47:12.388Z,99830.22
2023-03-26T05:49:44.227Z,99783.97
2023-03-26T05:52:15.178Z,99834.47
2023-03-26T05:54:45.091Z,99834.34
2023-03-26T05:57:14.757Z,99838.66
2023-03-26T05:59:42.770Z,99835.84
2023-03-26T06:02:13.985Z,99831.59
2023-03-26T06:04:42.689Z,99832.44
2023-03-26T06:07:14.297Z,99824.00
2023-03-26T06:09:42.202Z,99828.22
2023-03-26T06:12:13.345Z,99831.63
2023-03-26T06:14:43.810Z,99822.22
2023-03-26T06:17:11.711Z,99832.13
2023-03-26T06:19:42.737Z,99825.56
2023-03-26T06:22:14.867Z,99822.91
2023-03-26T06:24:42.579Z,99822.91
2023-03-26T06:27:12.162Z,99819.56
2023-03-26T06:29:42.146Z,99829.56
2023-03-26T06:32:19.107Z,99812.66
2023-03-26T06:34:49.555Z,99832.22
2023-03-26T06:37:19.411Z,99833.78
2023-03-26T06:39:47.306Z,99834.81
2023-03-26T06:42:17.284Z,99829.81
2023-03-26T06:44:47.136Z,99843.31
2023-03-26T06:47:14.875Z,99837.44
2023-03-26T06:49:45.412Z,99844.78
2023-03-26T06:52:16.507Z,99844.03
2023-03-26T06:54:44.230Z,99844.97
2023-03-26T06:57:11.958Z,99847.31
2023-03-26T06:59:43.920Z,99850.94
2023-03-26T07:02:12.102Z,99855.66
2023-03-26T07:04:39.843Z,99850.66
2023-03-26T07:07:11.797Z,99863.19
2023-03-26T07:09:40.885Z,99858.94
2023-03-26T07:12:08.880Z,99858.22
2023-03-26T07:14:40.690Z,99857.53
2023-03-26T07:17:08.381Z,99862.41
2023-03-26T07:19:36.126Z,99829.59
2023-03-26T07:22:04.757Z,99861.09
2023-03-26T07:24:32.984Z,99854.56
2023-03-26T07:27:09.601Z,99852.09
2023-03-26T07:29:46.818Z,99856.34
2023-03-26T07:32:23.005Z,99858.56
2023-03-26T07:34:57.755Z,99861.50
2023-03-26T07:37:43.485Z,99864.75
2023-03-26T07:40:22.996Z,99869.53
2023-03-26T07:43:05.676Z,99873.78
2023-03-26T07:45:39.599Z,99864.25
2023-03-26T07:48:14.194Z,99863.81
2023-03-26T07:50:42.514Z,99870.06
2023-03-26T07:53:11.019Z,99868.38
2023-03-26T07:55:50.853Z,99875.03
2023-03-26T07:58:37.989Z,99863.09
2023-03-26T08:01:14.635Z,99867.59
2023-03-26T08:04:23.438Z,99863.00
2023-03-26T08:06:54.731Z,99833.88
2023-03-26T08:09:29.950Z,99834.28
2023-03-26T08:12:02.294Z,99871.31
2023-03-26T08:14:52.455Z,99869.38
2023-03-26T08:17:31.205Z,99873.16
2023-03-26T08:20:09.362Z,99837.78
2023-03-26T08:22:42.868Z,99882.28
2023-03-26T08:25:27.634Z,99872.88
2023-03-26T08:28:13.771Z,99881.75
2023-03-26T08:30:43.597Z,99877.34
2023-03-26T08:33:19.723Z,99882.72
2023-03-26T08:35:48.790Z,99884.78
2023-03-26T08:38:20.178Z,99882.22
2023-03-26T08:41:23.487Z,99883.72
2023-03-26T08:44:19.573Z,99883.06
2023-03-26T08:47:17.514Z,99881.16
2023-03-26T08:50:11.740Z,99880.09
2023-03-26T08:53:12.319Z,99881.34
2023-03-26T08:55:47.971Z,99898.78
2023-03-26T08:58:47.702Z,99890.19
2023-03-26T09:01:42.489Z,99903.63
2023-03-26T09:04:31.583Z,99890.34
2023-03-26T09:07:31.080Z,99895.19
2023-03-26T09:10:26.132Z,99890.69
2023-03-26T09:13:16.144Z,99888.63
2023-03-26T09:16:08.414Z,99884.53
2023-03-26T09:19:06.740Z,99881.63
2023-03-26T09:22:09.038Z,99881.53
2023-03-26T09:24:58.938Z,99883.59
2023-03-26T09:27:39.151Z,99880.47
2023-03-26T09:30:43.939Z,99886.22
2023-03-26T09:33:53.908Z,99900.19
2023-03-26T09:36:33.155Z,99894.25
2023-03-26T09:39:16.533Z,99888.69
2023-03-26T09:41:52.777Z,99895.13
2023-03-26T09:44:47.699Z,99893.59
2023-03-26T09:48:05.586Z,99881.22
2023-03-26T09:50:46.397Z,99891.69
2023-03-26T09:53:41.850Z,99892.91
2023-03-26T09:56:21.630Z,99898.19
2023-03-26T09:59:17.870Z,99906.59
2023-03-26T10:01:53.527Z,99879.59
2023-03-26T10:04:53.168Z,99902.81
2023-03-26T10:07:49.041Z,99907.56
2023-03-26T10:10:26.394Z,99904.03
2023-03-26T10:13:14.134Z,99898.94
2023-03-26T10:16:00.380Z,99899.63
2023-03-26T10:18:40.067Z,99899.06
2023-03-26T10:21:22.832Z,99902.56
2023-03-26T10:24:14.487Z,99903.56
2023-03-26T10:27:11.718Z,99906.69
2023-03-26T10:30:19.897Z,99908.28
2023-03-26T10:32:54.828Z,99909.53
2023-03-26T10:35:38.987Z,99909.25
2023-03-26T10:38:17.038Z,99910.75
2023-03-26T10:40:56.309Z,99915.00
2023-03-26T10:44:07.800Z,99914.25
2023-03-26T10:47:08.482Z,99909.44
2023-03-26T10:49:49.143Z,99907.97
2023-03-26T10:52:24.314Z,99914.22
2023-03-26T10:54:57.568Z,99912.91
2023-03-26T10:57:41.250Z,99876.25
2023-03-26T11:00:24.815Z,99921.63
2023-03-26T11:03:19.434Z,99920.84
2023-03-26T11:05:58.096Z,99865.75
2023-03-26T11:08:38.369Z,99916.22
2023-03-26T11:11:15.653Z,99919.28
2023-03-26T11:13:50.133Z,99914.56
2023-03-26T11:16:24.931Z,99915.38
2023-03-26T11:18:59.872Z,99913.38
2023-03-26T11:21:34.766Z,99911.41
2023-03-26T11:24:23.610Z,99910.16
2023-03-26T11:26:57.824Z,99926.53
2023-03-26T11:29:53.565Z,99899.56
2023-03-26T11:32:25.633Z,99918.41
2023-03-26T11:35:03.590Z,99920.94
2023-03-26T11:37:35.283Z,99924.41
2023-03-26T11:40:11.591Z,99926.13
2023-03-26T11:42:39.858Z,99928.41
2023-03-26T11:45:17.499Z,99931.97
2023-03-26T11:47:50.423Z,99884.78
2023-03-26T11:50:26.891Z,99931.03
2023-03-26T11:52:58.303Z,99931.09
2023-03-26T11:55:30.391Z,99931.75
2023-03-26T11:58:01.264Z,99922.06
2023-03-26T12:00:33.666Z,99934.03
2023-03-26T12:03:01.587Z,99882.00
2023-03-26T12:05:33.628Z,99927.34
2023-03-26T12:08:18.874Z,99928.78
2023-03-26T12:10:59.571Z,99927.56
2023-03-26T12:13:36.612Z,99928.69
2023-03-26T12:16:10.255Z,99920.31
2023-03-26T12:18:41.692Z,99927.41
2023-03-26T12:21:12.841Z,99927.59
2023-03-26T12:23:57.418Z,99923.22
2023-03-26T12:26:39.639Z,99928.31
2023-03-26T12:29:13.685Z,99928.94
2023-03-26T12:31:46.848Z,99938.78
2023-03-26T12:34:21.100Z,99925.66
2023-03-26T12:36:59.519Z,99937.03
2023-03-26T12:40:09.299Z,99942.72
2023-03-26T12:44:47.105Z,99939.97
2023-03-26T12:45:22.767Z,99935.56
2023-03-26T12:48:00.068Z,99943.03
2023-03-26T12:50:43.410Z,99939.84
2023-03-26T12:53:37.621Z,99929.84
2023-03-26T12:56:22.045Z,99946.69
2023-03-26T12:59:06.556Z,99944.50
2023-03-26T13:01:48.027Z,99934.47
2023-03-26T13:04:37.584Z,99939.88
2023-03-26T13:07:16.572Z,99936.38
2023-03-26T13:09:54.153Z,99938.06
2023-03-26T13:12:35.222Z,99939.00
2023-03-26T13:15:26.865Z,99942.91
2023-03-26T13:18:07.609Z,99910.78
2023-03-26T13:20:50.155Z,99930.06
2023-03-26T13:23:33.628Z,99937.56
2023-03-26T13:26:13.930Z,99941.59
2023-03-26T13:28:52.652Z,99947.28
2023-03-26T13:32:13.814Z,99948.59
2023-03-26T13:34:56.676Z,99944.16
2023-03-26T13:37:29.506Z,99949.44
2023-03-26T13:40:17.154Z,99943.63
2023-03-26T13:43:01.892Z,99876.94
2023-03-26T13:45:46.901Z,99910.69
2023-03-26T13:48:20.267Z,99901.53
2023-03-26T13:51:02.347Z,99939.34
2023-03-26T13:53:38.162Z,99947.81
2023-03-26T13:56:10.941Z,99952.75
2023-03-26T13:58:46.240Z,99945.97
2023-03-26T14:01:21.286Z,99951.28
2023-03-26T14:03:56.522Z,99950.50
2023-03-26T14:06:38.172Z,99953.13
2023-03-26T14:09:12.600Z,99959.50
2023-03-26T14:11:51.152Z,99948.00
2023-03-26T14:14:27.088Z,99957.31
2023-03-26T14:16:59.283Z,99961.81
2023-03-26T14:20:10.923Z,99966.84
2023-03-26T14:22:47.657Z,99961.75
2023-03-26T14:25:26.206Z,99965.41
2023-03-26T14:28:18.056Z,99970.63
2023-03-26T14:31:19.471Z,99963.25
2023-03-26T14:34:00.207Z,99940.22
2023-03-26T14:36:36.539Z,99955.06
2023-03-26T14:39:25.505Z,99967.94
2023-03-26T14:41:58.384Z,99972.34
2023-03-26T14:44:47.997Z,99958.78
2023-03-26T14:47:20.607Z,99977.31
2023-03-26T14:50:28.873Z,99966.53
2023-03-26T14:53:00.988Z,99969.88
2023-03-26T14:56:04.984Z,99971.78
2023-03-26T14:59:16.161Z,99974.94
2023-03-26T15:02:24.311Z,99978.69
2023-03-26T15:05:36.444Z,99983.94
2023-03-26T15:08:58.537Z,99980.56
2023-03-26T15:11:32.636Z,99921.22
2023-03-26T15:14:15.650Z,99980.47
2023-03-26T15:17:22.423Z,99980.81
2023-03-26T15:20:39.560Z,99957.69
2023-03-26T15:23:34.874Z,99978.53
2023-03-26T15:26:37.296Z,99939.81
2023-03-26T15:29:24.595Z,99976.84
2023-03-26T15:32:30.344Z,99980.97
2023-03-26T15:35:24.265Z,99983.50
2023-03-26T15:38:36.008Z,99982.47
2023-03-26T15:41:16.912Z,100002.84
2023-03-26T15:44:43.796Z,99997.91
2023-03-26T15:47:33.767Z,99994.72
2023-03-26T15:50:18.647Z,99955.22
2023-03-26T15:52:56.436Z,100003.25
2023-03-26T15:55:38.502Z,100023.50
2023-03-26T15:58:16.214Z,100018.53
2023-03-26T16:00:58.269Z,100014.25
2023-03-26T16:03:34.295Z,100023.75
2023-03-26T16:06:35.181Z,100029.75
2023-03-26T16:09:28.975Z,100018.69
2023-03-26T16:12:01.956Z,100022.91
2023-03-26T16:14:44.336Z,100017.81
2023-03-26T16:17:17.786Z,100028.91
2023-03-26T16:20:04.608Z,100023.13
2023-03-26T16:22:42.654Z,100032.56
2023-03-26T16:25:27.442Z,100046.94
2023-03-26T16:28:30.365Z,100040.31
2023-03-26T16:31:39.453Z,100048.94
2023-03-26T16:34:44.355Z,100048.13
2023-03-26T16:37:39.773Z,100048.94
2023-03-26T16:40:46.146Z,100040.53
2023-03-26T16:43:32.146Z,100042.16
2023-03-26T16:46:12.416Z,100032.09
2023-03-26T16:48:54.990Z,100054.88
2023-03-26T16:51:34.299Z,100053.31
2023-03-26T16:54:13.375Z,100010.34
2023-03-26T16:56:52.244Z,100053.38
2023-03-26T17:00:05.321Z,100060.16
2023-03-26T17:02:39.333Z,100054.16
2023-03-26T17:05:19.764Z,100051.59
2023-03-26T17:07:56.253Z,100018.84
2023-03-26T17:10:33.917Z,100051.59
2023-03-26T17:13:07.360Z,100011.25
2023-03-26T17:15:47.013Z,99993.53
2023-03-26T17:18:29.687Z,100042.31
2023-03-26T17:21:04.483Z,100048.38
2023-03-26T17:23:56.492Z,100052.53
2023-03-26T17:26:29.663Z,100055.84
2023-03-26T17:29:17.662Z,100054.28
2023-03-26T17:31:58.937Z,100056.00
2023-03-26T17:35:00.658Z,100061.06
2023-03-26T17:37:45.653Z,100064.47
2023-03-26T17:40:48.178Z,100071.22
2023-03-26T17:43:51.030Z,100066.97
2023-03-26T17:46:28.879Z,100070.38
2023-03-26T17:49:02.472Z,100071.25
2023-03-26T17:51:43.438Z,100072.09
2023-03-26T17:54:20.721Z,100071.31
2023-03-26T17:56:49.881Z,100063.72
2023-03-26T17:59:23.452Z,100058.69
2023-03-26T18:01:55.968Z,100044.28
2023-03-26T18:04:32.562Z,99993.84
2023-03-26T18:07:24.962Z,100049.44
2023-03-26T18:10:12.984Z,100040.16
2023-03-26T18:13:04.871Z,100042.69
2023-03-26T18:15:46.024Z,100044.41
2023-03-26T18:18:19.939Z,100043.50
2023-03-26T18:20:51.211Z,100045.25
2023-03-26T18:23:26.877Z,100029.25
2023-03-26T18:25:59.823Z,100007.44
2023-03-26T18:28:37.791Z,100009.91
2023-03-26T18:31:10.489Z,100042.72
2023-03-26T18:33:48.395Z,100049.50
2023-03-26T18:36:19.643Z,100041.91
2023-03-26T18:38:48.782Z,100052.91
2023-03-26T18:41:30.146Z,100047.88
2023-03-26T18:44:02.693Z,100032.75
2023-03-26T18:46:31.176Z,100057.13
2023-03-26T18:49:02.817Z,100050.41
2023-03-26T18:51:46.387Z,100052.91
2023-03-26T18:54:21.597Z,100051.25
2023-03-26T18:56:54.059Z,100058.06
2023-03-26T18:59:28.082Z,100063.09
2023-03-26T19:02:01.892Z,100052.94
2023-03-26T19:04:33.437Z,100054.63
2023-03-26T19:07:09.248Z,100053.00
2023-03-26T19:09:37.305Z,100058.88
2023-03-26T19:12:19.894Z,100060.59
2023-03-26T19:14:56.570Z,100058.03
2023-03-26T19:17:31.573Z,100047.88
2023-03-26T19:19:59.743Z,100017.66
2023-03-26T19:22:30.573Z,100059.66
2023-03-26T19:25:02.061Z,100058.88
2023-03-26T19:27:30.280Z,100058.06
2023-03-26T19:29:58.919Z,100058.94
2023-03-26T19:32:33.080Z,100063.16
2023-03-26T19:35:02.292Z,100010.88
2023-03-26T19:37:32.496Z,99998.34
2023-03-26T19:40:17.700Z,100056.38
2023-03-26T19:42:45.835Z,100000.00
2023-03-26T19:45:20.640Z,100051.31
2023-03-26T19:47:57.474Z,100051.34
2023-03-26T19:50:35.430Z,100049.69
2023-03-26T19:53:25.410Z,100059.00
2023-03-26T19:56:07.566Z,100060.69
2023-03-26T19:58:36.342Z,100057.28
2023-03-26T20:01:04.839Z,100054.00
2023-03-26T20:03:39.431Z,100050.56
2023-03-26T20:06:12.788Z,100057.38
2023-03-26T20:08:44.633Z,100048.91
2023-03-26T20:11:17.085Z,100045.41
2023-03-26T20:13:44.762Z,100046.38
2023-03-26T20:16:20.137Z,100042.13
2023-03-26T20:18:51.302Z,100043.84
2023-03-26T20:21:19.416Z,100040.44
2023-03-26T20:23:50.381Z,100049.75
2023-03-26T20:26:20.976Z,100055.66
2023-03-26T20:28:53.183Z,100051.50
2023-03-26T20:31:28.513Z,100058.19
2023-03-26T20:33:58.304Z,100056.56
2023-03-26T20:36:33.837Z,100048.97
2023-03-26T20:39:08.472Z,100045.56
2023-03-26T20:41:43.299Z,100037.13
2023-03-26T20:44:17.188Z,100042.19
2023-03-26T20:46:46.097Z,100036.28
2023-03-26T20:49:16.415Z,100042.22
2023-03-26T20:51:47.207Z,100036.34
2023-03-26T20:54:21.300Z,100031.22
2023-03-26T20:56:51.174Z,100036.34
2023-03-26T20:59:22.357Z,99989.22
2023-03-26T21:01:56.301Z,100011.06
2023-03-26T21:04:24.997Z,100041.41
2023-03-26T21:06:57.621Z,100004.25
2023-03-26T21:09:36.903Z,100024.44
2023-03-26T21:12:07.795Z,100032.09
2023-03-26T21:14:43.335Z,100030.38
2023-03-26T21:17:16.584Z,100027.06
2023-03-26T21:19:49.327Z,100026.16
2023-03-26T21:22:31.737Z,100026.16
2023-03-26T21:25:17.344Z,100027.88
2023-03-26T21:27:59.043Z,100026.19
2023-03-26T21:30:31.476Z,100016.06
2023-03-26T21:32:59.714Z,100012.69
2023-03-26T21:35:30.595Z,100016.06
2023-03-26T21:38:03.576Z,100024.44
2023-03-26T21:40:33.438Z,100011.00
2023-03-26T21:43:01.855Z,100017.78
2023-03-26T21:45:32.266Z,100010.97
2023-03-26T21:48:01.551Z,100027.06
2023-03-26T21:50:30.000Z,100016.09
2023-03-26T21:53:01.324Z,100027.94
2023-03-26T21:55:29.663Z,100029.66
2023-03-26T21:58:33.412Z,100027.94
2023-03-26T22:01:16.704Z,100034.72
2023-03-26T22:04:02.121Z,100027.13
2023-03-26T22:06:37.727Z,100022.91
2023-03-26T22:09:08.060Z,100031.47
2023-03-26T22:11:38.199Z,100022.19
2023-03-26T22:14:07.471Z,100025.50
2023-03-26T22:16:37.306Z,100024.78
2023-03-26T22:19:07.425Z,100025.56
2023-03-26T22:21:35.867Z,100022.25
2023-03-26T22:24:08.212Z,100026.47
2023-03-26T22:26:38.578Z,100033.25
2023-03-26T22:29:08.168Z,100031.59
2023-03-26T22:31:40.471Z,100029.06
2023-03-26T22:34:09.293Z,99992.91
2023-03-26T22:36:39.781Z,100031.59
2023-03-26T22:39:14.028Z,100029.13
2023-03-26T22:41:42.085Z,100032.50
2023-03-26T22:44:19.975Z,100030.78
2023-03-26T22:46:53.490Z,100023.19
2023-03-26T22:49:21.470Z,100028.22
2023-03-26T22:51:50.145Z,100035.00
2023-03-26T22:54:22.198Z,100036.69
2023-03-26T22:56:52.212Z,100035.06
2023-03-26T22:59:25.534Z,99987.91
2023-03-26T23:01:54.167Z,100028.28
2023-03-26T23:04:30.612Z,100027.44
2023-03-26T23:07:02.121Z,100035.00
2023-03-26T23:09:32.394Z,100027.44
2023-03-26T23:12:00.460Z,100028.28
2023-03-26T23:14:33.041Z,100025.72
2023-03-26T23:17:03.230Z,100028.28
2023-03-26T23:19:34.108Z,100032.56
2023-03-26T23:22:02.043Z,100028.31
2023-03-26T23:24:31.857Z,100030.84
2023-03-26T23:27:02.006Z,100029.16
2023-03-26T23:29:31.850Z,100035.06
2023-03-26T23:32:01.668Z,100037.59
2023-03-26T23:34:32.083Z,100039.28
2023-03-26T23:37:00.050Z,100034.22
2023-03-26T23:39:30.525Z,100037.59
2023-03-26T23:42:00.583Z,99991.31
2023-03-26T23:44:32.329Z,100043.50
2023-03-26T23:47:03.492Z,100039.31
2023-03-26T23:49:31.865Z,100032.53
2023-03-26T23:52:02.780Z,100029.13
2023-03-26T23:54:35.672Z,100028.31
2023-03-26T23:57:05.699Z,100028.34
2023-03-26T23:59:36.204Z,100031.69
